createdAt,value
2023-02-02T00:01:50.387Z,32.62
2023-02-02T00:04:26.204Z,32.56
2023-02-02T00:06:54.985Z,32.40
2023-02-02T00:09:23.417Z,32.46
2023-02-02T00:11:51.331Z,32.64
2023-02-02T00:14:19.179Z,32.20
2023-02-02T00:16:52.263Z,32.03
2023-02-02T00:19:23.093Z,32.11
2023-02-02T00:21:51.394Z,32.14
2023-02-02T00:24:19.972Z,32.62
2023-02-02T00:26:51.062Z,32.16
2023-02-02T00:29:31.808Z,31.95
2023-02-02T00:31:59.568Z,32.20
2023-02-02T00:34:28.375Z,32.04
2023-02-02T00:36:56.291Z,32.15
2023-02-02T00:39:28.847Z,31.98
2023-02-02T00:41:57.029Z,32.15
2023-02-02T00:44:43.451Z,32.15
2023-02-02T00:47:11.687Z,32.03
2023-02-02T00:49:39.720Z,32.39
2023-02-02T00:52:07.864Z,32.21
2023-02-02T00:54:36.312Z,32.05
2023-02-02T00:57:04.238Z,31.76
2023-02-02T00:59:32.555Z,31.84
2023-02-02T01:02:02.386Z,32.05
2023-02-02T01:04:31.543Z,31.86
2023-02-02T01:06:59.263Z,31.69
2023-02-02T01:09:27.360Z,31.41
2023-02-02T01:11:55.189Z,31.66
2023-02-02T01:14:23.266Z,31.20
2023-02-02T01:16:52.098Z,31.22
2023-02-02T01:19:20.282Z,31.50
2023-02-02T01:21:48.173Z,31.40
2023-02-02T01:24:16.062Z,31.31
2023-02-02T01:26:43.849Z,31.15
2023-02-02T01:29:12.379Z,31.10
2023-02-02T01:31:40.931Z,31.32
2023-02-02T01:34:09.410Z,30.84
2023-02-02T01:36:37.650Z,31.30
2023-02-02T01:39:05.505Z,31.45
2023-02-02T01:41:33.625Z,31.30
2023-02-02T01:44:05.656Z,31.35
2023-02-02T01:46:36.095Z,31.54
2023-02-02T01:49:22.407Z,31.30
2023-02-02T01:51:58.254Z,31.84
2023-02-02T01:54:36.556Z,31.83
2023-02-02T01:57:10.155Z,31.92
2023-02-02T01:59:38.811Z,31.94
2023-02-02T02:02:07.245Z,32.22
2023-02-02T02:04:35.829Z,32.12
2023-02-02T02:07:05.887Z,32.14
2023-02-02T02:09:34.894Z,32.04
2023-02-02T02:12:02.928Z,32.34
2023-02-02T02:14:49.191Z,32.39
2023-02-02T02:17:49.560Z,31.78
2023-02-02T02:21:10.117Z,31.78
2023-02-02T02:24:15.327Z,32.08
2023-02-02T02:27:07.955Z,31.48
2023-02-02T02:29:52.112Z,31.32
2023-02-02T02:32:40.431Z,31.72
2023-02-02T02:35:27.416Z,32.01
2023-02-02T02:38:06.563Z,32.01
2023-02-02T02:40:51.922Z,31.79
2023-02-02T02:43:35.359Z,31.73
2023-02-02T02:46:04.338Z,31.55
2023-02-02T02:48:33.388Z,31.54
2023-02-02T02:51:29.534Z,31.52
2023-02-02T02:53:57.562Z,31.48
2023-02-02T02:56:38.586Z,31.09
2023-02-02T02:59:21.682Z,31.26
2023-02-02T03:02:04.838Z,30.99
2023-02-02T03:04:57.526Z,30.44
2023-02-02T03:07:51.880Z,30.73
2023-02-02T03:10:26.620Z,30.79
2023-02-02T03:12:55.703Z,30.96
2023-02-02T03:15:25.620Z,31.40
2023-02-02T03:17:54.253Z,31.74
2023-02-02T03:20:22.306Z,32.05
2023-02-02T03:22:50.387Z,31.98
2023-02-02T03:25:18.034Z,32.12
2023-02-02T03:27:45.902Z,32.21
2023-02-02T03:30:16.202Z,32.17
2023-02-02T03:32:45.446Z,32.28
2023-02-02T03:35:13.165Z,32.17
2023-02-02T03:37:41.054Z,31.71
2023-02-02T03:40:09.670Z,31.42
2023-02-02T03:42:37.379Z,31.08
2023-02-02T03:45:07.038Z,31.20
2023-02-02T03:47:37.894Z,31.25
2023-02-02T03:50:09.940Z,31.12
2023-02-02T03:52:38.032Z,31.28
2023-02-02T03:55:06.748Z,31.16
2023-02-02T03:57:36.138Z,31.04
2023-02-02T04:00:06.125Z,31.05
2023-02-02T04:02:43.412Z,31.36
2023-02-02T04:05:11.051Z,31.22
2023-02-02T04:07:38.917Z,31.28
2023-02-02T04:10:07.211Z,31.04
2023-02-02T04:12:36.339Z,31.18
2023-02-02T04:15:04.502Z,31.32
2023-02-02T04:17:32.444Z,30.95
2023-02-02T04:20:00.179Z,31.22
2023-02-02T04:22:27.983Z,31.23
2023-02-02T04:24:55.789Z,30.85
2023-02-02T04:27:23.593Z,31.07
2023-02-02T04:29:51.389Z,31.10
2023-02-02T04:32:19.158Z,31.05
2023-02-02T04:34:48.293Z,30.64
2023-02-02T04:37:15.956Z,30.74
2023-02-02T04:39:43.799Z,30.90
2023-02-02T04:42:11.550Z,30.81
2023-02-02T04:44:39.883Z,30.68
2023-02-02T04:47:07.674Z,30.84
2023-02-02T04:49:41.058Z,30.88
2023-02-02T04:52:11.105Z,31.25
2023-02-02T04:54:39.256Z,31.16
2023-02-02T04:57:07.038Z,31.03
2023-02-02T04:59:34.849Z,31.02
2023-02-02T05:02:02.940Z,31.08
2023-02-02T05:04:30.797Z,30.83
2023-02-02T05:06:58.530Z,30.63
2023-02-02T05:09:26.690Z,31.11
2023-02-02T05:11:54.527Z,30.66
2023-02-02T05:14:22.436Z,30.60
2023-02-02T05:16:51.071Z,30.71
2023-02-02T05:19:18.807Z,30.79
2023-02-02T05:21:50.653Z,30.80
2023-02-02T05:24:18.831Z,30.96
2023-02-02T05:26:47.226Z,30.77
2023-02-02T05:29:15.311Z,30.80
2023-02-02T05:31:42.985Z,30.86
2023-02-02T05:34:11.825Z,30.64
2023-02-02T05:36:39.658Z,30.56
2023-02-02T05:39:07.483Z,31.13
2023-02-02T05:41:35.555Z,32.23
2023-02-02T05:44:04.700Z,33.22
2023-02-02T05:46:32.523Z,33.19
2023-02-02T05:49:00.429Z,32.51
2023-02-02T05:51:32.126Z,32.68
2023-02-02T05:54:01.094Z,32.71
2023-02-02T05:56:28.945Z,32.37
2023-02-02T05:58:56.815Z,32.48
2023-02-02T06:01:24.709Z,32.75
2023-02-02T06:03:52.587Z,32.91
2023-02-02T06:06:20.572Z,33.06
2023-02-02T06:08:48.394Z,33.65
2023-02-02T06:11:18.981Z,33.63
2023-02-02T06:13:47.035Z,33.20
2023-02-02T06:16:15.062Z,33.28
2023-02-02T06:18:43.114Z,33.09
2023-02-02T06:21:11.860Z,33.21
2023-02-02T06:23:45.711Z,33.61
2023-02-02T06:26:14.454Z,33.87
2023-02-02T06:28:43.483Z,34.50
2023-02-02T06:31:12.103Z,34.41
2023-02-02T06:33:40.290Z,34.54
2023-02-02T06:36:08.164Z,33.98
2023-02-02T06:38:36.051Z,33.86
2023-02-02T06:41:07.176Z,33.96
2023-02-02T06:43:35.063Z,33.99
2023-02-02T06:46:03.022Z,33.96
2023-02-02T06:48:31.940Z,34.14
2023-02-02T06:51:00.434Z,34.37
2023-02-02T06:53:28.298Z,34.50
2023-02-02T06:55:57.699Z,34.32
2023-02-02T06:58:27.914Z,33.77
2023-02-02T07:00:56.121Z,33.78
2023-02-02T07:03:23.939Z,33.59
2023-02-02T07:05:51.669Z,33.83
2023-02-02T07:08:19.891Z,33.46
2023-02-02T07:11:13.924Z,33.32
2023-02-02T07:13:36.117Z,33.52
2023-02-02T07:16:05.076Z,33.44
2023-02-02T07:18:32.841Z,33.42
2023-02-02T07:21:01.663Z,33.29
2023-02-02T07:23:31.076Z,33.09
2023-02-02T07:26:08.004Z,33.25
2023-02-02T07:28:36.531Z,32.89
2023-02-02T07:31:17.877Z,33.02
2023-02-02T07:33:46.867Z,33.04
2023-02-02T07:36:17.204Z,33.39
2023-02-02T07:38:47.543Z,32.99
2023-02-02T07:41:16.052Z,33.13
2023-02-02T07:43:47.784Z,33.19
2023-02-02T07:46:17.550Z,33.04
2023-02-02T07:48:45.636Z,33.25
2023-02-02T07:51:18.509Z,33.25
2023-02-02T07:53:48.856Z,33.18
2023-02-02T07:56:22.314Z,33.09
2023-02-02T07:58:53.519Z,33.44
2023-02-02T08:01:23.283Z,33.32
2023-02-02T08:03:51.784Z,33.43
2023-02-02T08:06:28.530Z,33.28
2023-02-02T08:08:56.453Z,33.33
2023-02-02T08:11:26.171Z,33.54
2023-02-02T08:13:58.473Z,33.11
2023-02-02T08:16:30.299Z,32.74
2023-02-02T08:18:58.699Z,32.46
2023-02-02T08:21:27.066Z,32.84
2023-02-02T08:23:55.320Z,32.98
2023-02-02T08:26:28.255Z,32.98
2023-02-02T08:29:01.593Z,32.96
2023-02-02T08:31:36.256Z,33.18
2023-02-02T08:34:05.280Z,32.56
2023-02-02T08:36:35.630Z,32.41
2023-02-02T08:39:10.735Z,32.25
2023-02-02T08:41:39.046Z,32.47
2023-02-02T08:44:13.234Z,32.10
2023-02-02T08:46:42.299Z,32.22
2023-02-02T08:49:13.900Z,32.45
2023-02-02T08:51:42.175Z,32.55
2023-02-02T08:54:10.393Z,32.85
2023-02-02T08:56:39.139Z,33.10
2023-02-02T08:59:07.933Z,33.00
2023-02-02T09:01:36.199Z,32.95
2023-02-02T09:04:07.625Z,32.61
2023-02-02T09:06:38.150Z,32.23
2023-02-02T09:09:08.182Z,33.16
2023-02-02T09:11:36.335Z,33.10
2023-02-02T09:14:06.733Z,33.94
2023-02-02T09:16:36.138Z,33.68
2023-02-02T09:19:05.279Z,33.31
2023-02-02T09:21:37.394Z,33.25
2023-02-02T09:24:10.477Z,32.85
2023-02-02T09:26:40.768Z,32.73
2023-02-02T09:29:13.295Z,32.77
2023-02-02T09:31:41.871Z,32.54
2023-02-02T09:34:13.464Z,33.06
2023-02-02T09:36:42.633Z,32.62
2023-02-02T09:39:15.326Z,32.11
2023-02-02T09:42:05.016Z,32.38
2023-02-02T09:45:00.205Z,32.70
2023-02-02T09:47:55.549Z,33.38
2023-02-02T09:50:35.726Z,32.80
2023-02-02T09:53:14.844Z,32.52
2023-02-02T09:55:46.711Z,33.08
2023-02-02T09:58:19.242Z,32.60
2023-02-02T10:01:13.885Z,32.64
2023-02-02T10:04:05.669Z,33.29
2023-02-02T10:06:42.591Z,32.59
2023-02-02T10:09:35.229Z,33.06
2023-02-02T10:12:21.943Z,32.68
2023-02-02T10:14:59.226Z,32.91
2023-02-02T10:17:43.918Z,32.89
2023-02-02T10:20:30.894Z,32.73
2023-02-02T10:23:06.956Z,32.93
2023-02-02T10:25:35.908Z,32.61
2023-02-02T10:28:11.505Z,31.98
2023-02-02T10:30:46.063Z,33.90
2023-02-02T10:33:39.057Z,32.36
2023-02-02T10:36:07.667Z,31.81
2023-02-02T10:38:53.373Z,31.44
2023-02-02T10:41:30.505Z,32.20
2023-02-02T10:44:23.695Z,31.78
2023-02-02T10:46:55.872Z,31.62
2023-02-02T10:49:32.660Z,31.48
2023-02-02T10:52:31.510Z,32.07
2023-02-02T10:55:04.565Z,31.80
2023-02-02T10:57:58.175Z,31.86
2023-02-02T11:00:42.424Z,31.79
2023-02-02T11:03:13.560Z,32.11
2023-02-02T11:06:00.409Z,32.34
2023-02-02T11:08:36.624Z,32.01
2023-02-02T11:11:20.278Z,31.35
2023-02-02T11:13:48.347Z,31.50
2023-02-02T11:16:16.036Z,31.07
2023-02-02T11:18:46.100Z,31.12
2023-02-02T11:21:32.753Z,31.81
2023-02-02T11:24:06.854Z,31.79
2023-02-02T11:27:27.216Z,31.88
2023-02-02T11:29:59.324Z,31.63
2023-02-02T11:32:30.905Z,31.38
2023-02-02T11:35:04.891Z,32.41
2023-02-02T11:37:35.359Z,32.59
2023-02-02T11:40:22.791Z,32.29
2023-02-02T11:42:52.865Z,32.63
2023-02-02T11:45:35.722Z,32.61
2023-02-02T11:48:16.840Z,33.33
2023-02-02T11:50:53.997Z,32.64
2023-02-02T11:53:24.841Z,31.09
2023-02-02T11:55:54.375Z,30.61
2023-02-02T11:58:30.656Z,31.30
2023-02-02T12:01:01.891Z,31.22
2023-02-02T12:03:31.817Z,31.39
2023-02-02T12:06:04.890Z,31.96
2023-02-02T12:08:32.770Z,31.55
2023-02-02T12:11:03.607Z,32.07
2023-02-02T12:13:57.734Z,32.57
2023-02-02T12:16:34.371Z,33.72
2023-02-02T12:19:21.033Z,34.02
2023-02-02T12:21:58.813Z,34.73
2023-02-02T12:24:44.312Z,34.29
2023-02-02T12:27:39.943Z,34.23
2023-02-02T12:30:41.197Z,33.10
2023-02-02T12:33:44.328Z,31.29
2023-02-02T12:36:33.944Z,32.78
2023-02-02T12:39:09.111Z,32.67
2023-02-02T12:42:07.765Z,33.13
2023-02-02T12:45:10.937Z,37.39
2023-02-02T12:48:02.312Z,37.00
2023-02-02T12:50:54.714Z,36.76
2023-02-02T12:54:34.185Z,35.37
2023-02-02T12:57:01.046Z,34.17
2023-02-02T12:59:42.206Z,33.44
2023-02-02T13:02:18.928Z,33.25
2023-02-02T13:07:57.076Z,33.18
2023-02-02T13:10:32.553Z,32.86
2023-02-02T13:13:29.338Z,34.00
2023-02-02T13:16:08.113Z,33.02
2023-02-02T13:18:52.090Z,33.57
2023-02-02T13:21:24.003Z,33.33
2023-02-02T13:23:56.452Z,33.30
2023-02-02T13:26:35.670Z,32.75
2023-02-02T13:29:09.517Z,33.00
2023-02-02T13:31:47.049Z,32.83
2023-02-02T13:34:30.580Z,32.17
2023-02-02T13:37:20.213Z,31.69
2023-02-02T13:39:55.306Z,32.35
2023-02-02T13:42:40.712Z,32.39
2023-02-02T13:45:25.166Z,32.43
2023-02-02T13:48:00.562Z,32.65
2023-02-02T13:50:31.092Z,32.98
2023-02-02T13:53:17.392Z,32.82
2023-02-02T13:56:08.387Z,33.71
2023-02-02T13:59:01.582Z,33.92
2023-02-02T14:01:32.437Z,33.51
2023-02-02T14:04:01.073Z,33.87
2023-02-02T14:06:31.044Z,33.99
2023-02-02T14:09:05.686Z,34.50
2023-02-02T14:11:43.198Z,34.71
2023-02-02T14:14:32.305Z,35.03
2023-02-02T14:17:01.167Z,34.80
2023-02-02T14:19:30.587Z,35.00
2023-02-02T14:21:59.925Z,35.04
2023-02-02T14:24:27.632Z,35.36
2023-02-02T14:26:58.571Z,35.54
2023-02-02T14:29:33.030Z,35.80
2023-02-02T14:32:15.801Z,35.92
2023-02-02T14:34:45.005Z,36.15
2023-02-02T14:37:37.759Z,36.24
2023-02-02T14:40:06.722Z,36.28
2023-02-02T14:42:55.743Z,36.71
2023-02-02T14:45:27.189Z,36.96
2023-02-02T14:48:02.589Z,36.88
2023-02-02T14:50:57.923Z,36.89
2023-02-02T14:53:33.819Z,36.58
2023-02-02T14:56:18.553Z,36.53
2023-02-02T14:59:00.212Z,36.74
2023-02-02T15:01:37.643Z,37.02
2023-02-02T15:04:18.532Z,36.78
2023-02-02T15:06:47.248Z,36.67
2023-02-02T15:09:22.475Z,37.43
2023-02-02T15:12:01.201Z,36.87
2023-02-02T15:14:53.299Z,36.89
2023-02-02T15:17:30.269Z,36.64
2023-02-02T15:20:20.904Z,36.68
2023-02-02T15:22:48.688Z,36.48
2023-02-02T15:25:54.276Z,36.28
2023-02-02T15:28:25.553Z,36.31
2023-02-02T15:30:58.699Z,36.37
2023-02-02T15:33:44.015Z,36.35
2023-02-02T15:36:16.875Z,36.82
2023-02-02T15:38:46.714Z,36.62
2023-02-02T15:41:27.969Z,37.03
2023-02-02T15:43:55.699Z,36.60
2023-02-02T15:46:32.520Z,37.14
2023-02-02T15:49:33.205Z,37.70
2023-02-02T15:52:11.080Z,37.75
2023-02-02T15:54:38.848Z,37.70
2023-02-02T15:57:32.983Z,38.09
2023-02-02T16:00:21.528Z,37.73
2023-02-02T16:03:01.511Z,37.74
2023-02-02T16:05:32.237Z,37.77
2023-02-02T16:08:05.921Z,37.66
2023-02-02T16:10:35.462Z,37.78
2023-02-02T16:13:03.827Z,37.77
2023-02-02T16:15:33.029Z,37.88
2023-02-02T16:18:15.518Z,38.39
2023-02-02T16:20:44.856Z,38.33
2023-02-02T16:23:16.075Z,38.39
2023-02-02T16:25:51.621Z,38.87
2023-02-02T16:28:22.328Z,38.53
2023-02-02T16:30:51.898Z,38.92
2023-02-02T16:33:36.833Z,39.06
2023-02-02T16:36:29.794Z,39.40
2023-02-02T16:39:01.110Z,39.12
2023-02-02T16:41:34.788Z,39.32
2023-02-02T16:44:39.909Z,39.29
2023-02-02T16:47:30.481Z,39.08
2023-02-02T16:50:11.474Z,39.81
2023-02-02T16:52:54.101Z,40.70
2023-02-02T16:55:23.839Z,39.40
2023-02-02T16:57:52.479Z,39.28
2023-02-02T17:00:27.068Z,39.55
2023-02-02T17:03:10.339Z,39.67
2023-02-02T17:05:54.222Z,39.76
2023-02-02T17:08:31.554Z,39.56
2023-02-02T17:11:04.135Z,40.36
2023-02-02T17:13:32.433Z,40.21
2023-02-02T17:16:00.853Z,40.20
2023-02-02T17:18:28.725Z,40.12
2023-02-02T17:20:58.427Z,40.30
2023-02-02T17:23:28.769Z,40.76
2023-02-02T17:25:57.096Z,40.64
2023-02-02T17:28:26.710Z,42.13
2023-02-02T17:31:04.036Z,42.80
2023-02-02T17:33:35.428Z,42.86
2023-02-02T17:36:04.823Z,41.82
2023-02-02T17:38:33.147Z,41.04
2023-02-02T17:41:02.660Z,41.51
2023-02-02T17:43:33.043Z,41.37
2023-02-02T17:46:00.819Z,40.99
2023-02-02T17:48:28.797Z,40.57
2023-02-02T17:50:56.575Z,40.72
2023-02-02T17:53:24.382Z,41.04
2023-02-02T17:55:52.516Z,41.51
2023-02-02T17:58:20.520Z,41.45
2023-02-02T18:00:54.058Z,41.37
2023-02-02T18:03:33.724Z,41.87
2023-02-02T18:06:03.094Z,42.51
2023-02-02T18:08:33.171Z,42.60
2023-02-02T18:11:01.654Z,43.42
2023-02-02T18:13:29.365Z,42.83
2023-02-02T18:15:59.981Z,43.97
2023-02-02T18:18:29.847Z,44.93
2023-02-02T18:20:59.115Z,45.34
2023-02-02T18:23:27.057Z,44.70
2023-02-02T18:25:54.880Z,44.20
2023-02-02T18:28:22.637Z,44.12
2023-02-02T18:30:50.448Z,43.86
2023-02-02T18:33:20.171Z,43.72
2023-02-02T18:35:48.473Z,44.03
2023-02-02T18:38:16.398Z,45.07
2023-02-02T18:40:44.246Z,44.62
2023-02-02T18:43:12.186Z,44.34
2023-02-02T18:45:39.836Z,43.80
2023-02-02T18:48:07.645Z,43.88
2023-02-02T18:50:36.182Z,44.46
2023-02-02T18:53:04.157Z,44.23
2023-02-02T18:55:32.181Z,44.79
2023-02-02T18:58:01.317Z,45.11
2023-02-02T19:00:29.274Z,45.34
2023-02-02T19:02:57.069Z,44.99
2023-02-02T19:05:44.170Z,44.64
2023-02-02T19:08:12.499Z,44.29
2023-02-02T19:10:40.313Z,44.75
2023-02-02T19:13:19.846Z,44.86
2023-02-02T19:15:49.495Z,43.85
2023-02-02T19:18:21.594Z,43.93
2023-02-02T19:20:50.852Z,43.78
2023-02-02T19:23:24.365Z,43.50
2023-02-02T19:25:56.474Z,43.47
2023-02-02T19:28:29.110Z,43.57
2023-02-02T19:30:59.698Z,44.11
2023-02-02T19:33:48.031Z,45.18
2023-02-02T19:36:21.313Z,44.28
2023-02-02T19:38:52.471Z,43.55
2023-02-02T19:41:24.366Z,43.37
2023-02-02T19:43:58.455Z,43.61
2023-02-02T19:46:28.047Z,43.70
2023-02-02T19:49:28.595Z,44.04
2023-02-02T19:51:58.505Z,43.59
2023-02-02T19:54:41.246Z,43.72
2023-02-02T19:57:21.956Z,43.54
2023-02-02T19:59:52.811Z,43.41
2023-02-02T20:02:43.774Z,43.53
2023-02-02T20:05:11.744Z,43.40
2023-02-02T20:07:40.788Z,43.54
2023-02-02T20:10:23.990Z,43.70
2023-02-02T20:12:55.644Z,43.55
2023-02-02T20:15:34.221Z,43.87
2023-02-02T20:18:12.801Z,43.14
2023-02-02T20:20:44.167Z,43.28
2023-02-02T20:23:44.438Z,43.36
2023-02-02T20:26:14.525Z,43.29
2023-02-02T20:28:45.468Z,43.43
2023-02-02T20:31:17.996Z,43.57
2023-02-02T20:33:52.219Z,43.56
2023-02-02T20:36:42.607Z,43.47
2023-02-02T20:39:36.869Z,43.96
2023-02-02T20:42:04.982Z,43.57
2023-02-02T20:44:35.740Z,43.82
2023-02-02T20:47:05.145Z,43.91
2023-02-02T20:49:33.182Z,43.99
2023-02-02T20:52:05.031Z,43.36
2023-02-02T20:54:34.406Z,43.18
2023-02-02T20:57:05.848Z,43.21
2023-02-02T20:59:33.683Z,43.02
2023-02-02T21:02:02.171Z,43.26
2023-02-02T21:04:31.672Z,43.16
2023-02-02T21:07:00.182Z,42.65
2023-02-02T21:09:27.948Z,42.28
2023-02-02T21:11:56.180Z,41.68
2023-02-02T21:14:23.936Z,40.90
2023-02-02T21:16:57.273Z,40.42
2023-02-02T21:19:29.992Z,40.23
2023-02-02T21:21:57.791Z,39.96
2023-02-02T21:24:25.793Z,40.33
2023-02-02T21:26:54.107Z,39.39
2023-02-02T21:29:23.894Z,39.97
2023-02-02T21:31:52.582Z,40.19
2023-02-02T21:34:21.326Z,39.82
2023-02-02T21:36:50.900Z,40.08
2023-02-02T21:39:36.032Z,39.68
2023-02-02T21:42:22.554Z,39.54
2023-02-02T21:44:57.258Z,39.86
2023-02-02T21:47:38.453Z,40.17
2023-02-02T21:50:24.658Z,40.15
2023-02-02T21:53:25.760Z,39.97
2023-02-02T21:55:59.986Z,39.91
2023-02-02T21:58:40.404Z,42.19
2023-02-02T22:01:24.659Z,43.18
2023-02-02T22:03:52.801Z,43.10
2023-02-02T22:06:43.093Z,41.87
2023-02-02T22:09:13.890Z,41.72
2023-02-02T22:11:59.362Z,41.17
2023-02-02T22:14:39.111Z,41.47
2023-02-02T22:17:22.550Z,41.73
2023-02-02T22:19:55.166Z,42.07
2023-02-02T22:22:25.889Z,41.96
2023-02-02T22:25:03.993Z,42.15
2023-02-02T22:27:42.271Z,42.24
2023-02-02T22:30:26.053Z,42.21
2023-02-02T22:32:55.949Z,42.08
2023-02-02T22:35:25.144Z,41.95
2023-02-02T22:37:53.355Z,41.79
2023-02-02T22:40:22.854Z,41.46
2023-02-02T22:42:51.980Z,41.07
2023-02-02T22:45:20.054Z,41.43
2023-02-02T22:47:48.537Z,41.16
2023-02-02T22:50:22.437Z,40.86
2023-02-02T22:52:50.994Z,39.20
2023-02-02T22:55:20.197Z,38.19
2023-02-02T22:57:48.194Z,37.52
2023-02-02T23:00:21.274Z,36.77
2023-02-02T23:02:49.490Z,35.43
2023-02-02T23:05:21.743Z,35.92
2023-02-02T23:07:49.940Z,35.97
2023-02-02T23:10:20.313Z,36.32
2023-02-02T23:12:48.573Z,35.37
2023-02-02T23:15:16.431Z,35.22
2023-02-02T23:17:46.318Z,35.20
2023-02-02T23:20:16.023Z,34.88
2023-02-02T23:22:44.098Z,34.66
2023-02-02T23:25:13.971Z,34.69
2023-02-02T23:27:42.192Z,33.77
2023-02-02T23:30:11.747Z,33.69
2023-02-02T23:32:40.175Z,34.34
2023-02-02T23:35:10.408Z,34.35
2023-02-02T23:37:38.711Z,34.66
2023-02-02T23:40:11.273Z,34.46
2023-02-02T23:42:39.166Z,34.68
2023-02-02T23:45:07.298Z,34.81
2023-02-02T23:47:35.413Z,34.87
2023-02-02T23:50:06.960Z,34.80
2023-02-02T23:52:36.037Z,34.89
2023-02-02T23:55:04.938Z,34.42
2023-02-02T23:57:33.940Z,34.18
